Time;durP1;ratioP1;P1;durP2;ratioP2;P2;SDS_P1;SDS_P2;PMS_P1;PMS_P2;Temp;Humidity;BMP_temperature;BMP_pressure;BME280_temperature;BME280_humidity;BME280_pressure;Samples;Min_cycle;Max_cycle;Signal;HPM_P1;HPM_P2
2021/12/18 00:01:45;;;;;;;7.00;6.10;;;;;;;8.96;82.55;103450.44;5081669;28;20433;-71
2021/12/18 00:04:10;;;;;;;6.90;6.23;;;;;;;9.22;81.48;103449.38;5081473;28;20829;-72
2021/12/18 00:06:36;;;;;;;7.07;6.33;;;;;;;8.99;81.38;103442.81;5081357;28;20200;-71
2021/12/18 00:09:04;;;;;;;7.17;5.93;;;;;;;9.36;80.73;103433.66;5081567;28;20157;-72
2021/12/18 00:11:29;;;;;;;7.10;5.63;;;;;;;9.29;81.06;103429.81;5081078;28;20232;-71
2021/12/18 00:13:54;;;;;;;6.93;6.10;;;;;;;9.27;80.49;103431.44;5081097;28;20935;-70
2021/12/18 00:16:20;;;;;;;4.90;4.50;;;;;;;8.82;81.30;103427.88;5081694;28;20530;-70
2021/12/18 00:18:48;;;;;;;5.50;5.00;;;;;;;9.12;80.88;103422.72;5081089;28;20211;-70
2021/12/18 00:21:17;;;;;;;5.67;4.73;;;;;;;8.91;81.34;103428.44;5081144;28;20445;-70
2021/12/18 00:23:42;;;;;;;5.53;4.73;;;;;;;8.77;81.27;103419.81;5081032;28;20423;-70
2021/12/18 00:26:07;;;;;;;4.90;4.40;;;;;;;8.80;81.62;103422.59;5080902;28;20424;-69
2021/12/18 00:28:33;;;;;;;5.50;5.00;;;;;;;8.92;81.98;103418.13;5081026;28;20169;-70
2021/12/18 00:30:58;;;;;;;5.83;5.23;;;;;;;8.97;81.81;103420.09;5081641;28;20177;-69
2021/12/18 00:33:23;;;;;;;5.53;5.03;;;;;;;9.10;80.66;103423.50;5080714;28;20603;-70
2021/12/18 00:35:49;;;;;;;5.73;4.80;;;;;;;8.89;81.60;103422.25;5080759;28;20251;-70
2021/12/18 00:38:14;;;;;;;7.13;5.27;;;;;;;8.98;81.17;103429.72;5081135;28;20180;-71
2021/12/18 00:41:00;;;;;;;6.33;5.73;;;;;;;8.98;81.17;103421.91;5080843;28;20175;-72
2021/12/18 00:43:29;;;;;;;6.37;4.63;;;;;;;9.04;80.82;103427.50;5071323;28;20189;-69
2021/12/18 00:45:55;;;;;;;4.37;4.00;;;;;;;8.91;80.88;103431.06;5060836;28;20403;-69
2021/12/18 00:48:21;;;;;;;4.60;3.60;;;;;;;9.23;79.42;103440.75;5060619;28;20447;-66
2021/12/18 00:50:46;;;;;;;4.90;4.40;;;;;;;9.13;80.21;103438.41;5060975;28;20200;-68
2021/12/18 00:53:12;;;;;;;4.43;4.03;;;;;;;9.08;81.02;103438.16;5060077;28;20700;-68
2021/12/18 00:55:38;;;;;;;4.67;4.13;;;;;;;8.87;81.22;103450.78;5060706;28;20177;-68
2021/12/18 00:58:04;;;;;;;5.00;4.50;;;;;;;9.10;81.04;103433.91;5061062;28;20215;-67
2021/12/18 01:00:29;;;;;;;8.03;5.40;;;;;;;9.13;80.62;103429.72;5060384;28;20426;-67
2021/12/18 01:02:59;;;;;;;6.73;5.37;;;;;;;9.20;80.72;103437.06;5059752;28;20462;-67
2021/12/18 01:05:25;;;;;;;7.27;6.00;;;;;;;9.18;80.89;103430.91;5060820;28;20249;-68
2021/12/18 01:07:51;;;;;;;10.33;8.03;;;;;;;9.36;80.14;103428.47;5061139;28;20468;-67
2021/12/18 01:10:38;;;;;;;10.40;7.80;;;;;;;9.04;81.24;103424.88;5060339;28;20417;-68
2021/12/18 01:13:06;;;;;;;11.30;8.30;;;;;;;9.19;81.07;103430.97;5059408;28;20203;-67
2021/12/18 01:15:36;;;;;;;12.10;9.13;;;;;;;9.24;81.75;103426.94;5060191;28;20391;-68
2021/12/18 01:23:30;;;;;;;15.17;10.67;;;;;;;9.32;80.93;103418.69;5059971;28;20693;-67
2021/12/18 01:25:56;;;;;;;15.90;11.37;;;;;;;9.24;80.66;103423.44;5059805;28;20642;-67
2021/12/18 01:28:22;;;;;;;14.40;9.60;;;;;;;9.02;82.63;103423.88;5059015;28;20453;-67
2021/12/18 01:30:47;;;;;;;17.80;10.30;;;;;;;9.24;81.19;103429.56;5060219;28;20710;-67
2021/12/18 01:33:13;;;;;;;16.83;10.50;;;;;;;8.51;84.16;103420.81;5059563;28;20205;-67
2021/12/18 01:35:38;;;;;;;18.60;10.73;;;;;;;9.05;82.68;103424.97;5059949;28;20203;-67
2021/12/18 01:38:04;;;;;;;20.07;10.80;;;;;;;9.20;81.51;103421.47;5059908;28;20287;-68
2021/12/18 01:40:29;;;;;;;14.90;10.57;;;;;;;9.20;82.05;103414.56;5059565;28;20616;-67
2021/12/18 01:43:22;;;;;;;14.43;9.93;;;;;;;9.24;81.49;103419.13;5059337;28;20169;-68
2021/12/18 01:46:06;;;;;;;18.53;11.17;;;;;;;9.23;82.06;103413.84;5060290;28;20186;-67
2021/12/18 01:51:23;;;;;;;17.03;10.70;;;;;;;9.33;80.38;103421.38;5062921;28;20415;-68
2021/12/18 01:53:52;;;;;;;14.40;9.60;;;;;;;9.13;82.11;103420.19;5062690;28;20493;-67
2021/12/18 01:56:18;;;;;;;14.97;9.27;;;;;;;8.91;83.15;103418.94;5060964;28;20408;-67
2021/12/18 01:58:47;;;;;;;12.60;8.87;;;;;;;8.97;82.53;103421.03;5059964;28;20419;-68
2021/12/18 02:01:14;;;;;;;13.37;8.30;;;;;;;9.20;81.79;103414.56;5059935;28;20239;-69
2021/12/18 02:03:39;;;;;;;13.40;8.87;;;;;;;9.08;81.68;103416.44;5058994;28;20387;-68
2021/12/18 02:06:05;;;;;;;15.90;8.30;;;;;;;8.61;83.52;103414.50;5059147;28;20404;-67
2021/12/18 02:08:33;;;;;;;12.03;8.03;;;;;;;9.17;81.80;103414.38;5059122;28;20248;-68
2021/12/18 02:11:11;;;;;;;11.80;7.27;;;;;;;9.02;82.52;103403.94;5059091;28;20176;-68
2021/12/18 02:19:56;;;;;;;9.67;7.00;;;;;;;9.07;81.74;103412.94;5059253;28;20390;-68
2021/12/18 02:21:42;;;;;;;9.60;7.10;;;;;;;9.07;82.51;103406.84;5045426;28;20407;-68
2021/12/18 02:24:09;;;;;;;9.40;7.30;;;;;;;8.96;82.29;103414.00;5058202;28;20387;-68
2021/12/18 02:26:34;;;;;;;9.20;6.57;;;;;;;9.06;81.98;103416.34;5058801;28;20177;-68
2021/12/18 02:29:02;;;;;;;8.93;6.40;;;;;;;9.18;81.48;103412.69;5058882;28;20828;-68
2021/12/18 02:31:28;;;;;;;9.00;7.07;;;;;;;9.15;81.77;103410.78;5059372;28;20555;-67
2021/12/18 02:33:54;;;;;;;8.30;6.20;;;;;;;8.83;82.11;103407.16;5058585;28;20460;-68
2021/12/18 02:36:23;;;;;;;7.80;5.10;;;;;;;8.97;82.41;103405.41;5058978;28;20173;-68
2021/12/18 02:43:54;;;;;;;6.90;5.63;;;;;;;9.12;82.23;103402.81;5058648;28;20431;-68
2021/12/18 02:46:20;;;;;;;7.33;5.40;;;;;;;8.96;82.97;103395.81;5057718;28;20517;-68
2021/12/18 02:48:50;;;;;;;6.30;5.33;;;;;;;9.34;82.01;103391.03;5058521;28;20416;-67
2021/12/18 02:51:16;;;;;;;8.00;5.43;;;;;;;8.89;83.40;103399.75;5058600;28;20173;-68
2021/12/18 02:53:49;;;;;;;6.90;5.60;;;;;;;8.99;82.72;103390.78;5058120;28;20446;-68
2021/12/18 02:56:16;;;;;;;7.40;5.30;;;;;;;8.57;84.72;103393.50;5058370;28;20428;-68
2021/12/18 02:58:43;;;;;;;4.93;4.43;;;;;;;8.97;83.01;103388.88;5058474;28;20722;-67
2021/12/18 03:01:11;;;;;;;6.53;4.70;;;;;;;9.09;82.56;103389.59;5058349;28;20448;-68
2021/12/18 03:03:39;;;;;;;8.17;5.70;;;;;;;9.24;82.59;103387.00;5058849;28;20431;-68
2021/12/18 03:09:12;;;;;;;8.07;5.60;;;;;;;9.00;84.59;103374.34;5058428;28;20718;-68
2021/12/18 03:23:04;;;;;;;6.77;5.27;;;;;;;9.12;82.59;103360.25;5058090;28;20430;-67
2021/12/18 03:25:33;;;;;;;11.00;6.53;;;;;;;9.18;82.37;103355.41;5059173;28;20382;-68
2021/12/18 03:27:59;;;;;;;8.60;6.17;;;;;;;9.24;81.98;103354.06;5061613;28;20408;-67
2021/12/18 03:30:25;;;;;;;9.27;6.20;;;;;;;8.97;84.12;103355.97;5062166;28;20395;-68
2021/12/18 03:32:51;;;;;;;9.27;6.70;;;;;;;9.12;83.16;103350.75;5062797;28;20801;-68
2021/12/18 03:35:17;;;;;;;8.80;6.40;;;;;;;9.14;82.29;103353.44;5067416;28;20184;-68
2021/12/18 03:37:42;;;;;;;9.53;5.77;;;;;;;8.65;84.05;103349.75;5069854;28;20174;-67
2021/12/18 03:40:11;;;;;;;7.60;6.57;;;;;;;8.90;83.79;103356.41;5070406;28;20253;-67
2021/12/18 03:42:37;;;;;;;7.87;5.47;;;;;;;9.28;81.89;103347.31;5068598;28;20283;-68
2021/12/18 03:45:04;;;;;;;6.97;5.00;;;;;;;9.22;81.52;103353.06;5069819;28;20422;-68
2021/12/18 03:47:30;;;;;;;6.60;5.20;;;;;;;9.34;80.83;103345.06;5069996;28;20165;-69
2021/12/18 03:49:55;;;;;;;7.30;5.20;;;;;;;9.54;80.24;103340.06;5064137;28;20769;-68
2021/12/18 03:52:21;;;;;;;7.47;5.60;;;;;;;9.44;80.83;103339.59;5063081;28;20623;-69
2021/12/18 03:54:46;;;;;;;8.90;6.10;;;;;;;9.27;81.78;103336.00;5063252;28;20494;-70
2021/12/18 03:57:11;;;;;;;7.37;5.47;;;;;;;9.25;82.24;103345.44;5062706;28;20174;-69
2021/12/18 03:59:36;;;;;;;8.20;5.60;;;;;;;9.27;82.93;103340.34;5061918;28;20181;-67
2021/12/18 04:02:02;;;;;;;8.80;6.67;;;;;;;9.44;81.88;103342.19;5061935;28;20174;-68
2021/12/18 04:04:27;;;;;;;8.43;5.80;;;;;;;9.20;82.26;103344.28;5062297;28;20177;-67
2021/12/18 04:06:53;;;;;;;7.83;5.73;;;;;;;9.07;83.98;103341.78;5062959;28;20182;-71
2021/12/18 04:09:18;;;;;;;7.83;5.57;;;;;;;9.11;83.62;103335.94;5061222;28;20181;-67
2021/12/18 04:11:44;;;;;;;7.53;5.67;;;;;;;9.13;82.48;103344.72;5061135;28;20184;-67
2021/12/18 04:14:11;;;;;;;7.60;5.37;;;;;;;9.41;81.87;103339.38;5061292;28;20217;-67
2021/12/18 04:16:36;;;;;;;6.80;4.83;;;;;;;9.18;81.85;103342.41;5061871;28;20170;-67
2021/12/18 04:19:02;;;;;;;6.67;5.83;;;;;;;9.30;82.28;103337.00;5061324;28;20452;-68
2021/12/18 04:21:29;;;;;;;7.20;5.10;;;;;;;9.18;81.84;103337.19;5061086;28;20201;-68
2021/12/18 04:23:54;;;;;;;8.30;6.07;;;;;;;9.30;81.49;103332.69;5061452;28;20432;-68
2021/12/18 04:26:20;;;;;;;8.63;5.90;;;;;;;9.24;81.74;103328.03;5061009;28;20806;-68
2021/12/18 04:28:45;;;;;;;8.80;5.73;;;;;;;9.12;83.45;103337.75;5061043;28;20174;-67
2021/12/18 04:31:11;;;;;;;8.43;6.17;;;;;;;9.18;82.27;103330.28;5061469;28;20586;-67
2021/12/18 04:33:36;;;;;;;7.33;5.70;;;;;;;9.43;82.10;103329.06;5060611;28;20217;-69
2021/12/18 04:36:01;;;;;;;6.47;5.13;;;;;;;9.30;82.00;103324.00;5060844;28;20548;-67
2021/12/18 04:38:27;;;;;;;7.20;4.83;;;;;;;9.15;82.91;103321.41;5060213;28;20180;-67
2021/12/18 04:40:52;;;;;;;6.73;5.60;;;;;;;9.13;83.81;103328.22;5060792;28;20528;-67
2021/12/18 04:43:17;;;;;;;7.87;5.20;;;;;;;9.14;82.90;103319.63;5060449;28;20428;-67
2021/12/18 04:45:43;;;;;;;5.47;4.83;;;;;;;9.00;83.35;103318.81;5061077;28;20189;-67
2021/12/18 04:48:08;;;;;;;5.43;4.77;;;;;;;9.12;83.05;103316.00;5060633;28;20235;-67
2021/12/18 04:50:34;;;;;;;5.50;4.53;;;;;;;9.00;83.44;103321.41;5060432;28;20174;-67
2021/12/18 04:52:59;;;;;;;5.13;4.63;;;;;;;9.13;83.29;103310.00;5061265;28;20232;-69
2021/12/18 04:55:24;;;;;;;4.40;4.00;;;;;;;8.75;84.25;103310.50;5069211;28;20189;-69
2021/12/18 04:57:51;;;;;;;4.20;3.80;;;;;;;9.02;83.81;103309.41;5068433;28;20177;-68
2021/12/18 05:00:19;;;;;;;4.37;3.97;;;;;;;9.14;82.69;103309.22;5068596;28;20173;-69
2021/12/18 05:02:46;;;;;;;4.77;4.27;;;;;;;8.99;82.65;103299.69;5060967;28;20391;-69
2021/12/18 05:05:13;;;;;;;5.07;4.07;;;;;;;9.48;81.48;103285.94;5061381;28;20398;-69
2021/12/18 05:07:39;;;;;;;4.70;4.10;;;;;;;9.23;82.51;103300.22;5060271;28;20423;-68
2021/12/18 05:10:06;;;;;;;4.17;3.77;;;;;;;9.13;83.15;103291.78;5059597;28;20663;-68
2021/12/18 05:12:32;;;;;;;4.40;4.00;;;;;;;9.09;83.49;103296.84;5060363;28;20173;-67
2021/12/18 05:14:57;;;;;;;4.23;3.83;;;;;;;9.22;82.42;103293.19;5060214;28;20438;-67
2021/12/18 05:17:22;;;;;;;5.40;4.60;;;;;;;9.30;82.87;103301.44;5060842;28;20539;-67
2021/12/18 05:19:47;;;;;;;5.40;3.10;;;;;;;9.14;82.86;103297.06;5060865;28;20180;-68
2021/12/18 05:22:13;;;;;;;4.00;3.60;;;;;;;8.86;84.14;103297.19;5059727;28;20177;-68
2021/12/18 05:24:38;;;;;;;3.83;3.43;;;;;;;9.02;82.68;103305.06;5060040;28;20502;-68
2021/12/18 05:27:03;;;;;;;4.37;3.97;;;;;;;9.18;83.00;103298.16;5060256;28;20174;-67
2021/12/18 05:29:29;;;;;;;3.83;3.43;;;;;;;8.99;81.77;103294.50;5059986;28;20593;-67
2021/12/18 05:31:54;;;;;;;6.10;4.70;;;;;;;9.04;81.96;103305.19;5058879;28;20219;-67
2021/12/18 05:34:25;;;;;;;4.60;3.83;;;;;;;9.00;81.37;103301.50;5060175;28;20197;-68
2021/12/18 05:39:23;;;;;;;4.70;3.90;;;;;;;8.82;81.86;103305.63;5059634;28;20399;-67
2021/12/18 05:41:50;;;;;;;4.70;4.10;;;;;;;8.42;82.66;103306.75;5059670;28;20461;-68
2021/12/18 05:44:17;;;;;;;6.00;4.27;;;;;;;8.62;81.22;103312.25;5059978;28;20387;-68
2021/12/18 05:46:44;;;;;;;5.33;4.03;;;;;;;8.87;81.05;103301.59;5060028;28;20774;-68
2021/12/18 05:49:09;;;;;;;5.03;4.10;;;;;;;8.83;80.93;103302.22;5059502;28;20817;-68
2021/12/18 05:51:36;;;;;;;4.40;4.00;;;;;;;9.09;80.13;103295.91;5059837;28;20471;-68
2021/12/18 05:54:02;;;;;;;3.57;3.27;;;;;;;9.04;80.10;103290.47;5060169;28;20232;-67
2021/12/18 05:56:28;;;;;;;3.83;3.43;;;;;;;8.88;80.87;103293.00;5059801;28;20387;-68
2021/12/18 05:58:53;;;;;;;3.47;3.17;;;;;;;8.96;80.38;103291.72;5059537;28;20185;-68
2021/12/18 06:01:19;;;;;;;3.73;3.27;;;;;;;9.25;78.94;103295.09;5059835;28;20177;-68
2021/12/18 06:03:45;;;;;;;4.30;3.63;;;;;;;8.90;79.47;103294.88;5059184;28;20507;-68
2021/12/18 06:06:10;;;;;;;4.00;3.27;;;;;;;8.61;81.70;103300.97;5059192;28;20173;-68
2021/12/18 06:08:36;;;;;;;3.50;3.20;;;;;;;8.89;80.87;103303.50;5059722;28;20231;-68
2021/12/18 06:11:07;;;;;;;3.77;3.40;;;;;;;8.61;80.49;103306.19;5058512;28;20196;-69
2021/12/18 06:13:33;;;;;;;3.30;3.00;;;;;;;9.12;79.76;103295.19;5058814;28;20210;-68
2021/12/18 06:15:58;;;;;;;4.13;3.30;;;;;;;8.96;79.79;103301.22;5059275;28;20421;-68
2021/12/18 06:18:24;;;;;;;4.23;3.77;;;;;;;9.03;79.55;103296.47;5059011;28;20547;-67
2021/12/18 06:20:49;;;;;;;4.20;3.80;;;;;;;9.16;80.28;103292.88;5058870;28;20177;-67
2021/12/18 06:23:14;;;;;;;4.30;3.90;;;;;;;9.24;79.73;103296.81;5059356;28;20172;-67
2021/12/18 06:25:39;;;;;;;4.63;4.23;;;;;;;9.12;80.34;103297.81;5058968;28;20550;-67
2021/12/18 06:28:05;;;;;;;5.43;4.40;;;;;;;9.18;80.34;103296.44;5058864;28;20201;-68
2021/12/18 06:30:30;;;;;;;4.80;4.30;;;;;;;9.39;79.60;103291.56;5059255;28;20173;-68
2021/12/18 06:32:55;;;;;;;5.67;5.17;;;;;;;9.20;79.51;103293.91;5058667;28;20195;-67
2021/12/18 06:35:21;;;;;;;5.90;5.30;;;;;;;9.00;80.20;103297.97;5058960;28;20173;-67
2021/12/18 06:37:46;;;;;;;5.07;4.57;;;;;;;8.97;79.68;103290.00;5058984;28;20166;-70
2021/12/18 06:40:11;;;;;;;5.03;4.53;;;;;;;8.95;79.66;103292.53;5058940;28;20212;-68
2021/12/18 06:42:38;;;;;;;4.60;4.20;;;;;;;8.91;79.32;103290.56;5058184;28;20185;-68
2021/12/18 06:45:04;;;;;;;4.50;4.10;;;;;;;9.26;77.84;103299.47;5058923;28;20185;-67
2021/12/18 06:47:29;;;;;;;4.60;4.20;;;;;;;9.36;77.17;103295.69;5058335;28;20453;-67
2021/12/18 06:49:54;;;;;;;4.43;4.03;;;;;;;9.02;78.45;103292.06;5058517;28;20489;-68
2021/12/18 06:52:20;;;;;;;4.60;4.07;;;;;;;9.24;78.45;103298.50;5058057;28;20308;-68
2021/12/18 06:54:45;;;;;;;4.20;3.80;;;;;;;8.65;79.55;103302.94;5058172;28;20541;-67
2021/12/18 06:57:10;;;;;;;4.80;4.40;;;;;;;8.83;79.27;103302.22;5058511;28;20173;-70
2021/12/18 06:59:35;;;;;;;4.07;3.67;;;;;;;8.57;80.49;103305.09;5057897;28;20220;-67
2021/12/18 07:02:01;;;;;;;4.43;4.03;;;;;;;9.07;78.70;103302.75;5057761;28;20178;-67
2021/12/18 07:04:26;;;;;;;5.43;4.10;;;;;;;9.08;78.57;103307.16;5058898;28;20535;-67
2021/12/18 07:06:52;;;;;;;4.37;3.97;;;;;;;9.15;78.04;103303.19;5058379;28;20457;-67
2021/12/18 07:09:18;;;;;;;4.70;4.30;;;;;;;8.96;79.64;103304.75;5058171;28;20176;-68
2021/12/18 07:11:44;;;;;;;4.70;4.30;;;;;;;8.61;81.23;103302.69;5058711;28;20408;-68
2021/12/18 07:14:09;;;;;;;5.20;4.70;;;;;;;8.65;81.19;103308.16;5058078;28;20438;-68
2021/12/18 07:16:34;;;;;;;4.90;4.40;;;;;;;8.55;80.98;103301.50;5058143;28;20484;-67
2021/12/18 07:19:00;;;;;;;6.00;4.73;;;;;;;8.69;80.67;103297.13;5058699;28;20304;-68
2021/12/18 07:21:25;;;;;;;5.30;4.80;;;;;;;8.88;80.78;103298.19;5058059;28;20209;-67
2021/12/18 07:23:50;;;;;;;5.90;5.30;;;;;;;8.72;80.69;103299.88;5057949;28;20181;-67
2021/12/18 07:26:16;;;;;;;6.00;5.20;;;;;;;8.60;82.10;103304.38;5058315;28;20214;-68
2021/12/18 07:28:42;;;;;;;5.40;4.80;;;;;;;9.12;79.74;103300.41;5057854;28;20193;-67
2021/12/18 07:31:07;;;;;;;7.27;5.50;;;;;;;9.12;80.18;103295.19;5058005;28;20827;-68
2021/12/18 07:33:33;;;;;;;6.57;5.43;;;;;;;9.02;81.11;103296.38;5057384;28;20457;-67
2021/12/18 07:35:59;;;;;;;6.07;5.47;;;;;;;9.02;80.60;103292.06;5057900;28;20547;-67
2021/12/18 07:38:24;;;;;;;5.70;5.10;;;;;;;9.16;80.27;103292.88;5057826;28;20166;-67
2021/12/18 07:40:49;;;;;;;7.50;5.50;;;;;;;8.85;81.40;103292.78;5058411;28;20510;-67
2021/12/18 07:43:15;;;;;;;5.90;5.20;;;;;;;9.02;81.95;103297.25;5057677;28;20485;-68
2021/12/18 07:45:40;;;;;;;8.50;6.00;;;;;;;8.76;82.82;103291.47;5057410;28;20263;-69
2021/12/18 07:48:06;;;;;;;10.67;8.40;;;;;;;9.01;82.32;103291.97;5058231;28;20177;-68
2021/12/18 07:50:31;;;;;;;5.73;5.10;;;;;;;8.79;83.80;103297.66;5057815;28;20507;-67
2021/12/18 07:52:57;;;;;;;6.07;5.43;;;;;;;9.08;81.70;103291.53;5058450;28;20240;-69
2021/12/18 07:55:23;;;;;;;9.50;6.20;;;;;;;8.77;83.19;103293.25;5059060;28;20216;-68
2021/12/18 07:57:50;;;;;;;6.70;6.00;;;;;;;9.00;82.60;103296.31;5058010;28;20787;-67
2021/12/18 08:00:16;;;;;;;7.43;5.70;;;;;;;8.64;84.17;103301.16;5058878;28;20199;-68
2021/12/18 08:02:42;;;;;;;7.50;5.47;;;;;;;9.06;82.66;103291.44;5062117;28;20383;-68
2021/12/18 08:05:08;;;;;;;5.60;4.70;;;;;;;9.21;81.42;103291.41;5059527;28;20394;-68
2021/12/18 08:07:33;;;;;;;5.30;4.80;;;;;;;9.07;82.13;103293.22;5059306;28;20458;-67
2021/12/18 08:09:59;;;;;;;6.10;4.83;;;;;;;8.84;82.65;103294.50;5059073;28;20532;-68
2021/12/18 08:12:24;;;;;;;9.07;6.47;;;;;;;8.49;83.69;103300.25;5060087;28;20178;-67
2021/12/18 08:14:49;;;;;;;7.97;6.53;;;;;;;8.68;83.45;103305.72;5061267;28;20204;-67
2021/12/18 08:17:15;;;;;;;9.73;6.63;;;;;;;9.05;81.98;103284.44;5061951;28;20219;-67
2021/12/18 08:19:40;;;;;;;7.33;6.10;;;;;;;8.73;83.16;103288.69;5061708;28;20223;-67
2021/12/18 08:22:06;;;;;;;7.83;6.30;;;;;;;8.93;82.62;103283.75;5060938;28;20184;-68
2021/12/18 08:24:31;;;;;;;7.60;6.30;;;;;;;8.72;82.90;103279.09;5061361;28;20177;-67
2021/12/18 08:26:56;;;;;;;5.47;4.70;;;;;;;9.05;82.79;103278.34;5060609;28;20215;-68
2021/12/18 08:29:22;;;;;;;6.37;5.50;;;;;;;8.91;82.43;103282.75;5060844;28;20244;-67
2021/12/18 08:31:47;;;;;;;6.10;5.10;;;;;;;8.83;83.39;103281.41;5060300;28;20185;-68
2021/12/18 08:34:12;;;;;;;6.03;4.70;;;;;;;9.02;82.47;103284.25;5060574;28;20470;-68
2021/12/18 08:36:38;;;;;;;5.40;4.27;;;;;;;8.99;82.10;103283.22;5060605;28;20193;-67
2021/12/18 08:39:04;;;;;;;4.53;3.87;;;;;;;8.69;83.92;103278.03;5060480;28;20216;-66
2021/12/18 08:41:29;;;;;;;4.37;3.63;;;;;;;8.85;83.86;103274.59;5060455;28;20454;-68
2021/12/18 08:43:54;;;;;;;4.13;3.70;;;;;;;9.75;87.68;103276.13;5060370;28;20162;-68
2021/12/18 08:46:20;;;;;;;4.43;3.50;;;;;;;10.90;78.32;103271.59;5064267;28;20193;-67
2021/12/18 08:48:45;;;;;;;5.73;3.90;;;;;;;13.06;76.64;103265.50;5072050;28;20181;-66
2021/12/18 08:51:11;;;;;;;3.30;3.00;;;;;;;14.19;68.52;103267.09;5065871;28;20227;-70
2021/12/18 08:53:36;;;;;;;3.20;2.87;;;;;;;13.64;69.08;103261.66;5060526;28;20197;-69
2021/12/18 08:56:01;;;;;;;3.07;2.80;;;;;;;14.28;66.26;103253.44;5079389;28;20562;-65
2021/12/18 08:58:27;;;;;;;3.10;2.60;;;;;;;12.52;68.60;103263.28;5080235;28;20226;-66
2021/12/18 09:00:52;;;;;;;2.70;2.50;;;;;;;12.80;71.34;103262.72;5080862;28;20430;-66
2021/12/18 09:03:18;;;;;;;3.63;2.90;;;;;;;12.29;69.99;103270.16;5071680;28;20181;-66
2021/12/18 09:05:43;;;;;;;5.43;3.43;;;;;;;10.18;74.15;103264.50;5060177;28;20161;-71
2021/12/18 09:08:09;;;;;;;3.70;3.40;;;;;;;9.62;78.09;103265.88;5060396;28;20165;-71
2021/12/18 09:10:34;;;;;;;3.40;3.10;;;;;;;9.60;77.46;103268.38;5059984;28;20481;-70
2021/12/18 09:12:59;;;;;;;3.97;3.40;;;;;;;8.92;79.61;103272.44;5059742;28;20182;-70
2021/12/18 09:15:25;;;;;;;4.70;3.80;;;;;;;8.82;80.29;103272.72;5061556;28;20200;-70
2021/12/18 09:17:50;;;;;;;3.60;3.30;;;;;;;8.32;81.65;103283.59;5059687;28;20177;-69
2021/12/18 09:20:16;;;;;;;3.80;3.50;;;;;;;8.85;80.30;103279.78;5067387;28;20268;-69
2021/12/18 09:22:41;;;;;;;5.27;3.97;;;;;;;8.66;81.26;103283.03;5079389;28;20193;-69
2021/12/18 09:25:08;;;;;;;4.47;4.07;;;;;;;8.36;82.91;103283.91;5079400;28;20169;-69
2021/12/18 09:27:33;;;;;;;5.33;4.60;;;;;;;8.80;81.44;103270.84;5079446;28;20441;-70
2021/12/18 09:29:59;;;;;;;5.07;4.57;;;;;;;8.51;83.32;103278.75;5079823;28;20457;-69
2021/12/18 09:32:24;;;;;;;4.97;4.47;;;;;;;8.77;81.76;103282.84;5079285;28;20263;-69
2021/12/18 09:34:49;;;;;;;5.33;3.63;;;;;;;8.63;82.61;103272.47;5079679;28;20220;-70
2021/12/18 09:37:15;;;;;;;4.80;4.30;;;;;;;9.00;81.25;103270.28;5079846;28;20173;-70
2021/12/18 09:39:40;;;;;;;5.13;4.40;;;;;;;8.91;82.42;103268.03;5079517;28;20173;-69
2021/12/18 09:42:06;;;;;;;4.60;4.20;;;;;;;8.90;82.03;103266.25;5079265;28;20176;-70
2021/12/18 09:44:33;;;;;;;5.23;4.47;;;;;;;9.40;80.64;103251.69;5079749;28;20499;-70
2021/12/18 09:46:58;;;;;;;4.60;4.20;;;;;;;9.27;80.36;103257.91;5079142;28;20461;-70
2021/12/18 09:49:24;;;;;;;4.90;4.20;;;;;;;9.39;80.99;103248.97;5079266;28;20445;-71
2021/12/18 09:51:50;;;;;;;6.83;4.23;;;;;;;9.38;80.87;103248.09;5078974;28;20231;-71
2021/12/18 09:54:16;;;;;;;7.20;5.13;;;;;;;9.00;81.84;103241.66;5076039;28;20206;-68
2021/12/18 09:56:42;;;;;;;5.90;3.93;;;;;;;8.55;83.60;103246.00;5061556;28;20809;-68
2021/12/18 09:59:08;;;;;;;5.43;4.80;;;;;;;8.82;83.59;103251.00;5060528;28;20469;-69
2021/12/18 10:01:34;;;;;;;4.67;4.27;;;;;;;9.01;82.33;103252.94;5059383;28;20417;-68
2021/12/18 10:04:01;;;;;;;5.90;4.37;;;;;;;9.10;82.13;103249.16;5059447;28;20176;-73
2021/12/18 10:06:41;;;;;;;6.03;4.40;;;;;;;9.17;81.87;103239.97;5058978;28;20424;-70
2021/12/18 10:09:12;;;;;;;4.70;4.10;;;;;;;9.07;82.05;103237.69;5058897;28;20379;-74
2021/12/18 10:11:51;;;;;;;5.00;4.37;;;;;;;9.08;82.64;103232.56;5058853;28;20451;-71
2021/12/18 10:14:19;;;;;;;7.87;4.80;;;;;;;9.12;82.56;103225.84;5058643;28;20471;-73
2021/12/18 10:16:49;;;;;;;8.20;5.50;;;;;;;9.00;82.18;103228.66;5058585;28;20473;-71
2021/12/18 10:19:32;;;;;;;7.17;5.37;;;;;;;9.22;82.23;103227.25;5058832;28;20444;-71
2021/12/18 10:22:01;;;;;;;6.10;5.30;;;;;;;9.15;81.68;103232.94;5059002;28;20809;-71
2021/12/18 10:24:28;;;;;;;6.03;5.37;;;;;;;9.44;81.49;103225.00;5060573;28;20827;-71
2021/12/18 10:26:54;;;;;;;9.77;5.70;;;;;;;9.29;81.19;103218.94;5060079;28;20423;-70
2021/12/18 10:29:34;;;;;;;8.93;5.70;;;;;;;9.33;80.95;103209.63;5060401;28;20390;-71
2021/12/18 10:32:14;;;;;;;9.57;5.60;;;;;;;9.53;80.80;103205.50;5059440;28;20548;-74
2021/12/18 10:34:41;;;;;;;11.30;6.47;;;;;;;9.27;81.17;103202.38;5058271;28;20449;-71
2021/12/18 10:37:14;;;;;;;8.60;5.60;;;;;;;9.55;80.92;103209.06;5058082;28;20401;-71
2021/12/18 10:39:53;;;;;;;8.00;5.70;;;;;;;9.38;81.26;103198.63;5058367;28;20418;-71
2021/12/18 10:42:29;;;;;;;10.60;6.73;;;;;;;9.70;80.54;103207.28;5058273;28;20403;-71
2021/12/18 10:45:01;;;;;;;14.67;6.83;;;;;;;9.34;80.66;103207.09;5058432;28;20463;-71
2021/12/18 10:47:44;;;;;;;15.43;6.50;;;;;;;9.60;80.62;103197.19;5058786;28;20414;-72
2021/12/18 10:50:26;;;;;;;8.63;6.73;;;;;;;9.97;78.26;103195.59;5058755;28;20390;-71
2021/12/18 10:53:05;;;;;;;8.43;6.40;;;;;;;9.65;79.44;103190.50;5057838;28;20509;-71
2021/12/18 10:55:51;;;;;;;12.60;7.27;;;;;;;9.80;79.51;103182.59;5074914;28;20436;-70
2021/12/18 10:58:21;;;;;;;15.67;6.73;;;;;;;9.67;80.00;103180.16;5078033;28;20814;-69
2021/12/18 11:00:53;;;;;;;12.73;8.17;;;;;;;10.08;78.56;103174.50;5078224;28;20654;-70
2021/12/18 11:03:25;;;;;;;11.20;7.23;;;;;;;9.94;78.72;103176.41;5077765;28;20423;-71
2021/12/18 11:06:06;;;;;;;9.90;7.30;;;;;;;9.68;80.28;103172.44;5078047;28;20378;-71
2021/12/18 11:08:33;;;;;;;13.83;7.90;;;;;;;10.04;78.48;103163.81;5078474;28;20671;-71
2021/12/18 11:13:48;;;;;;;12.20;8.10;;;;;;;9.96;79.95;103160.84;5084394;28;20483;-70
2021/12/18 11:16:15;;;;;;;17.63;9.27;;;;;;;10.27;78.57;103151.97;5083460;28;20720;-70
2021/12/18 11:18:41;;;;;;;17.30;8.37;;;;;;;9.62;80.27;103153.91;5078299;28;20394;-70
2021/12/18 11:21:06;;;;;;;12.83;9.00;;;;;;;10.13;78.96;103143.44;5077816;28;20393;-69
2021/12/18 11:23:39;;;;;;;14.10;8.27;;;;;;;9.88;79.51;103141.34;5078296;28;20419;-70
2021/12/18 11:26:06;;;;;;;17.13;8.03;;;;;;;10.21;78.70;103139.50;5077246;28;20215;-70
2021/12/18 11:28:32;;;;;;;16.87;7.87;;;;;;;10.21;78.73;103142.13;5077116;28;20426;-73
2021/12/18 11:30:58;;;;;;;12.30;8.10;;;;;;;10.41;78.17;103130.09;5077779;28;20767;-74
2021/12/18 11:33:23;;;;;;;15.70;7.57;;;;;;;10.54;77.34;103130.69;5077794;28;20208;-73
2021/12/18 11:35:48;;;;;;;16.10;7.37;;;;;;;10.20;78.18;103129.00;5078053;28;20423;-73
2021/12/18 11:38:15;;;;;;;8.73;6.10;;;;;;;10.19;78.49;103133.34;5077759;28;20223;-73
2021/12/18 11:40:41;;;;;;;16.63;6.97;;;;;;;10.63;77.19;103125.91;5076984;28;20181;-72
2021/12/18 11:43:38;;;;;;;17.80;6.70;;;;;;;10.37;78.32;103122.94;5077808;28;20768;-70
2021/12/18 11:46:34;;;;;;;12.80;6.50;;;;;;;10.45;77.16;103119.00;5077753;28;20238;-71
2021/12/18 11:49:02;;;;;;;14.23;7.30;;;;;;;10.58;76.88;103114.38;5081667;28;20442;-72
2021/12/18 11:51:28;;;;;;;14.50;6.33;;;;;;;10.84;76.31;103110.41;5080676;28;20437;-72
2021/12/18 11:53:54;;;;;;;15.60;6.80;;;;;;;10.40;77.05;103117.00;5078121;28;20974;-71
2021/12/18 11:56:19;;;;;;;11.27;6.67;;;;;;;10.44;77.63;103119.84;5062127;28;20406;-73
2021/12/18 11:58:46;;;;;;;10.83;6.70;;;;;;;10.57;77.48;103110.88;5061779;28;20261;-73
2021/12/18 12:01:25;;;;;;;11.07;6.40;;;;;;;10.28;77.89;103109.41;5061831;28;20260;-71
2021/12/18 12:03:50;;;;;;;11.83;6.53;;;;;;;10.52;76.79;103107.16;5061096;28;20396;-72
2021/12/18 12:06:30;;;;;;;15.13;7.40;;;;;;;10.50;77.34;103105.28;5061241;28;20379;-72
2021/12/18 12:09:23;;;;;;;15.03;6.73;;;;;;;10.45;76.96;103102.47;5061186;28;20178;-73
2021/12/18 12:12:04;;;;;;;17.00;6.17;;;;;;;10.38;77.64;103098.66;5061081;28;20516;-72